Quantico Creek — WDF5735 — position and weather

sailwx.info

Track history (hours):
 
Tides and Currents Weather Stations Pressure Air Temp Water Temp Dewpoint Dewpoint Depression Visibility Wind Speed Wind Dir Waves Ship Positions

Quantico Creek

Owner: Vane Line Bunkering, Inc., Philadelphia, PA. More information available from US FCC via Universal Licensing System and Coast Guard Vessel Documentation Center.

Last reported at 2018-Jan-24 06:30 UTC. Time now 2018-Jan-24 09:49 UTC.
Position N 27°38' W 082°34'.

Length 31 m; draft 3.9 m.

Type: Other ship. MMSI: 367466650.

Date/timePositionNaut miles runAvg speedWind from/ knotsBaromVisibWave heightAir tempDewpointWater temp
2018-Jan-24 06:30N 27°38' W 082°34'0 0.0
2018-Jan-24 05:54N 27°38' W 082°34'0 0.0
2018-Jan-24 05:30N 27°38' W 082°34'0 0.0
2018-Jan-24 04:59N 27°38' W 082°34'0 0.0
2018-Jan-24 04:30N 27°38' W 082°34'0 0.0
2018-Jan-24 04:00N 27°38' W 082°34'0 0.0
2018-Jan-24 03:30N 27°38' W 082°34'0 0.0
2018-Jan-24 02:12N 27°38' W 082°34'0 0.0
2018-Jan-23 01:32N 27°38' W 082°34'0 0.0
2018-Jan-23 01:30N 27°38' W 082°34'0 0.0
2018-Jan-23 00:59N 27°38' W 082°34'0 0.0
2018-Jan-23 00:30N 27°38' W 082°34'0 0.0
2018-Jan-22 22:40N 27°38' W 082°34'0 0.3
2018-Jan-22 22:26N 27°38' W 082°34'7 0.1
2018-Jan-20 20:35N 27°45' W 082°32'1 8.9
2018-Jan-20 20:30N 27°46' W 082°31'5 8.3
2018-Jan-20 19:51N 27°49' W 082°27'3 9.4
2018-Jan-20 19:30N 27°52' W 082°27'4 7.9
2018-Jan-20 19:00N 27°56' W 082°27'0 0.6
2018-Jan-20 18:30N 27°57' W 082°27'0 0.0
2018-Jan-20 18:00N 27°57' W 082°27'0 0.0
2018-Jan-20 17:30N 27°57' W 082°27'0 0.0
2018-Jan-20 17:00N 27°57' W 082°27'0 0.0
2018-Jan-20 16:30N 27°57' W 082°27'0 0.0
2018-Jan-20 16:00N 27°57' W 082°27'0 0.0
2018-Jan-20 15:30N 27°57' W 082°27'0 0.0
2018-Jan-20 15:00N 27°57' W 082°27'0 0.1
2018-Jan-20 14:30N 27°57' W 082°27'0 0.0
2018-Jan-20 14:00N 27°57' W 082°27'0 0.0
2018-Jan-20 13:30N 27°57' W 082°27'0 0.0
2018-Jan-20 13:00N 27°57' W 082°27'0 0.0
2018-Jan-20 12:30N 27°57' W 082°27'0 0.0
2018-Jan-20 12:00N 27°57' W 082°27'0 0.2
2018-Jan-20 11:30N 27°57' W 082°27'2 4.8
2018-Jan-20 11:00N 27°54' W 082°26'5 9.2
2018-Jan-20 10:30N 27°50' W 082°27'4 7.6
2018-Jan-20 10:00N 27°47' W 082°30'1 1.8
2018-Jan-20 09:30N 27°47' W 082°31'5 8.9
2018-Jan-20 08:56N 27°42' W 082°33'4 1.7
2018-Jan-20 06:24N 27°38' W 082°34'  
Track history (hours):
 
Tides and Currents Weather Stations Pressure Air Temp Water Temp Dewpoint Dewpoint Depression Visibility Wind Speed Wind Dir Waves Ship Positions

Quantico Creek

Owner: Vane Line Bunkering, Inc., Philadelphia, PA. More information available from US FCC via Universal Licensing System and Coast Guard Vessel Documentation Center.

Last reported at 2018-Jan-24 06:30 UTC. Time now 2018-Jan-24 09:49 UTC.
Position N 27°38' W 082°34'.

Length 31 m; draft 3.9 m.

Type: Other ship. MMSI: 367466650.

Date/timePositionNaut miles runAvg speedWind from/ knotsBaromVisibWave heightAir tempDewpointWater temp
2018-Jan-24 06:30N 27°38' W 082°34'0 0.0
2018-Jan-24 05:54N 27°38' W 082°34'0 0.0
2018-Jan-24 05:30N 27°38' W 082°34'0 0.0
2018-Jan-24 04:59N 27°38' W 082°34'0 0.0
2018-Jan-24 04:30N 27°38' W 082°34'0 0.0
2018-Jan-24 04:00N 27°38' W 082°34'0 0.0
2018-Jan-24 03:30N 27°38' W 082°34'0 0.0
2018-Jan-24 02:12N 27°38' W 082°34'0 0.0
2018-Jan-23 01:32N 27°38' W 082°34'0 0.0
2018-Jan-23 01:30N 27°38' W 082°34'0 0.0
2018-Jan-23 00:59N 27°38' W 082°34'0 0.0
2018-Jan-23 00:30N 27°38' W 082°34'0 0.0
2018-Jan-22 22:40N 27°38' W 082°34'0 0.3
2018-Jan-22 22:26N 27°38' W 082°34'7 0.1
2018-Jan-20 20:35N 27°45' W 082°32'1 8.9
2018-Jan-20 20:30N 27°46' W 082°31'5 8.3
2018-Jan-20 19:51N 27°49' W 082°27'3 9.4
2018-Jan-20 19:30N 27°52' W 082°27'4 7.9
2018-Jan-20 19:00N 27°56' W 082°27'0 0.6
2018-Jan-20 18:30N 27°57' W 082°27'0 0.0
2018-Jan-20 18:00N 27°57' W 082°27'0 0.0
2018-Jan-20 17:30N 27°57' W 082°27'0 0.0
2018-Jan-20 17:00N 27°57' W 082°27'0 0.0
2018-Jan-20 16:30N 27°57' W 082°27'0 0.0
2018-Jan-20 16:00N 27°57' W 082°27'0 0.0
2018-Jan-20 15:30N 27°57' W 082°27'0 0.0
2018-Jan-20 15:00N 27°57' W 082°27'0 0.1
2018-Jan-20 14:30N 27°57' W 082°27'0 0.0
2018-Jan-20 14:00N 27°57' W 082°27'0 0.0
2018-Jan-20 13:30N 27°57' W 082°27'0 0.0
2018-Jan-20 13:00N 27°57' W 082°27'0 0.0
2018-Jan-20 12:30N 27°57' W 082°27'0 0.0
2018-Jan-20 12:00N 27°57' W 082°27'0 0.2
2018-Jan-20 11:30N 27°57' W 082°27'2 4.8
2018-Jan-20 11:00N 27°54' W 082°26'5 9.2
2018-Jan-20 10:30N 27°50' W 082°27'4 7.6
2018-Jan-20 10:00N 27°47' W 082°30'1 1.8
2018-Jan-20 09:30N 27°47' W 082°31'5 8.9
2018-Jan-20 08:56N 27°42' W 082°33'4 1.7
2018-Jan-20 06:24N 27°38' W 082°34'  

Dump ship's entire track history